sensor_id;sensor_type;location;lat;lon;timestamp;temperature;humidity
9544;DHT22;30418;51.45933468;7.33152330;2022-10-24T00:02:09;18.30;74.40
9544;DHT22;30418;51.45933468;7.33152330;2022-10-24T00:04:39;18.30;74.30
9544;DHT22;30418;51.45933468;7.33152330;2022-10-24T00:07:08;18.30;74.30
9544;DHT22;30418;51.45933468;7.33152330;2022-10-24T00:09:37;18.30;74.30
9544;DHT22;30418;51.45933468;7.33152330;2022-10-24T00:12:06;18.30;74.30
9544;DHT22;30418;51.45933468;7.33152330;2022-10-24T00:14:35;18.30;74.40
9544;DHT22;30418;51.45933468;7.33152330;2022-10-24T00:17:05;18.30;74.30
9544;DHT22;30418;51.45933468;7.33152330;2022-10-24T00:19:34;18.30;74.40
9544;DHT22;30418;51.45933468;7.33152330;2022-10-24T00:22:02;18.30;74.20
9544;DHT22;30418;51.45933468;7.33152330;2022-10-24T00:24:31;18.30;74.10
9544;DHT22;30418;51.45933468;7.33152330;2022-10-24T00:27:00;18.30;74.10
9544;DHT22;30418;51.45933468;7.33152330;2022-10-24T00:29:28;18.30;74.20
9544;DHT22;30418;51.45933468;7.33152330;2022-10-24T00:31:56;18.30;74.10
9544;DHT22;30418;51.45933468;7.33152330;2022-10-24T00:34:26;18.30;74.10
9544;DHT22;30418;51.45933468;7.33152330;2022-10-24T00:36:55;18.30;74.10
9544;DHT22;30418;51.45933468;7.33152330;2022-10-24T00:39:23;18.30;74.00
9544;DHT22;30418;51.45933468;7.33152330;2022-10-24T00:41:52;18.30;74.00
9544;DHT22;30418;51.45933468;7.33152330;2022-10-24T00:44:26;18.30;74.00
9544;DHT22;30418;51.45933468;7.33152330;2022-10-24T00:46:58;18.30;74.00
9544;DHT22;30418;51.45933468;7.33152330;2022-10-24T00:49:32;18.20;73.90
9544;DHT22;30418;51.45933468;7.33152330;2022-10-24T00:52:07;18.30;73.90
9544;DHT22;30418;51.45933468;7.33152330;2022-10-24T00:54:37;18.30;73.90
9544;DHT22;30418;51.45933468;7.33152330;2022-10-24T00:57:10;18.30;73.90
9544;DHT22;30418;51.45933468;7.33152330;2022-10-24T00:59:44;18.30;73.90
9544;DHT22;30418;51.45933468;7.33152330;2022-10-24T01:02:13;18.20;73.80
9544;DHT22;30418;51.45933468;7.33152330;2022-10-24T01:04:44;18.20;73.80
9544;DHT22;30418;51.45933468;7.33152330;2022-10-24T01:07:22;18.20;74.70
9544;DHT22;30418;51.45933468;7.33152330;2022-10-24T01:10:07;18.20;73.80
9544;DHT22;30418;51.45933468;7.33152330;2022-10-24T01:12:51;18.20;73.80
9544;DHT22;30418;51.45933468;7.33152330;2022-10-24T01:15:30;18.20;73.90
9544;DHT22;30418;51.45933468;7.33152330;2022-10-24T01:18:09;18.20;73.80
9544;DHT22;30418;51.45933468;7.33152330;2022-10-24T01:20:59;18.20;73.80
9544;DHT22;30418;51.45933468;7.33152330;2022-10-24T01:30:05;18.20;73.60
9544;DHT22;30418;51.45933468;7.33152330;2022-10-24T01:32:40;18.20;73.50
9544;DHT22;30418;51.45933468;7.33152330;2022-10-24T01:35:23;18.20;73.50
9544;DHT22;30418;51.45933468;7.33152330;2022-10-24T01:38:01;18.20;73.30
9544;DHT22;30418;51.45933468;7.33152330;2022-10-24T01:40:35;18.20;73.40
9544;DHT22;30418;51.45933468;7.33152330;2022-10-24T01:43:09;18.20;73.40
9544;DHT22;30418;51.45933468;7.33152330;2022-10-24T01:45:45;18.20;73.20
9544;DHT22;30418;51.45933468;7.33152330;2022-10-24T01:48:19;18.20;73.20
9544;DHT22;30418;51.45933468;7.33152330;2022-10-24T01:50:52;18.30;73.40
9544;DHT22;30418;51.45933468;7.33152330;2022-10-24T01:53:22;18.30;73.30
9544;DHT22;30418;51.45933468;7.33152330;2022-10-24T01:55:53;18.30;73.20
9544;DHT22;30418;51.45933468;7.33152330;2022-10-24T01:58:21;18.30;73.10
9544;DHT22;30418;51.45933468;7.33152330;2022-10-24T02:00:54;18.30;73.10
9544;DHT22;30418;51.45933468;7.33152330;2022-10-24T02:03:29;18.30;73.90
9544;DHT22;30418;51.45933468;7.33152330;2022-10-24T02:06:03;18.20;72.90
9544;DHT22;30418;51.45933468;7.33152330;2022-10-24T02:08:39;18.30;73.00
9544;DHT22;30418;51.45933468;7.33152330;2022-10-24T02:11:09;18.30;72.90
9544;DHT22;30418;51.45933468;7.33152330;2022-10-24T02:13:41;18.30;72.90
9544;DHT22;30418;51.45933468;7.33152330;2022-10-24T02:16:15;18.30;72.90
9544;DHT22;30418;51.45933468;7.33152330;2022-10-24T02:18:46;18.30;72.90
9544;DHT22;30418;51.45933468;7.33152330;2022-10-24T02:21:22;18.30;72.80
9544;DHT22;30418;51.45933468;7.33152330;2022-10-24T02:23:56;18.30;72.80
9544;DHT22;30418;51.45933468;7.33152330;2022-10-24T02:26:31;18.30;72.70
9544;DHT22;30418;51.45933468;7.33152330;2022-10-24T02:29:03;18.30;73.50
9544;DHT22;30418;51.45933468;7.33152330;2022-10-24T02:31:39;18.30;72.70
9544;DHT22;30418;51.45933468;7.33152330;2022-10-24T02:34:11;18.30;72.60
9544;DHT22;30418;51.45933468;7.33152330;2022-10-24T02:36:42;18.30;72.50
9544;DHT22;30418;51.45933468;7.33152330;2022-10-24T02:39:13;18.30;72.50
9544;DHT22;30418;51.45933468;7.33152330;2022-10-24T02:41:43;18.40;72.50
9544;DHT22;30418;51.45933468;7.33152330;2022-10-24T02:44:14;18.40;72.40
9544;DHT22;30418;51.45933468;7.33152330;2022-10-24T02:46:46;18.40;72.40
9544;DHT22;30418;51.45933468;7.33152330;2022-10-24T02:49:15;18.40;72.30
9544;DHT22;30418;51.45933468;7.33152330;2022-10-24T02:51:45;18.40;72.20
9544;DHT22;30418;51.45933468;7.33152330;2022-10-24T02:54:14;18.40;72.20
9544;DHT22;30418;51.45933468;7.33152330;2022-10-24T02:56:45;18.40;72.10
9544;DHT22;30418;51.45933468;7.33152330;2022-10-24T02:59:15;18.30;71.90
9544;DHT22;30418;51.45933468;7.33152330;2022-10-24T03:01:45;18.40;72.00
9544;DHT22;30418;51.45933468;7.33152330;2022-10-24T03:04:13;18.40;71.90
9544;DHT22;30418;51.45933468;7.33152330;2022-10-24T03:06:42;18.40;71.80
9544;DHT22;30418;51.45933468;7.33152330;2022-10-24T03:09:11;18.30;71.70
9544;DHT22;30418;51.45933468;7.33152330;2022-10-24T03:11:40;18.30;71.60
9544;DHT22;30418;51.45933468;7.33152330;2022-10-24T03:14:08;18.30;71.60
9544;DHT22;30418;51.45933468;7.33152330;2022-10-24T03:16:37;18.30;71.60
9544;DHT22;30418;51.45933468;7.33152330;2022-10-24T03:19:06;18.30;71.50
9544;DHT22;30418;51.45933468;7.33152330;2022-10-24T03:21:35;18.30;72.30
9544;DHT22;30418;51.45933468;7.33152330;2022-10-24T03:24:03;18.30;71.50
9544;DHT22;30418;51.45933468;7.33152330;2022-10-24T03:26:37;18.30;71.40
9544;DHT22;30418;51.45933468;7.33152330;2022-10-24T03:29:05;18.40;71.40
9544;DHT22;30418;51.45933468;7.33152330;2022-10-24T03:31:34;18.40;71.30
9544;DHT22;30418;51.45933468;7.33152330;2022-10-24T03:34:02;18.40;71.40
9544;DHT22;30418;51.45933468;7.33152330;2022-10-24T03:36:32;18.40;71.30
9544;DHT22;30418;51.45933468;7.33152330;2022-10-24T03:39:01;18.40;71.30
9544;DHT22;30418;51.45933468;7.33152330;2022-10-24T03:41:29;18.40;71.30
9544;DHT22;30418;51.45933468;7.33152330;2022-10-24T03:43:58;18.30;71.00
9544;DHT22;30418;51.45933468;7.33152330;2022-10-24T03:46:26;18.30;71.00
9544;DHT22;30418;51.45933468;7.33152330;2022-10-24T03:48:54;18.40;71.20
9544;DHT22;30418;51.45933468;7.33152330;2022-10-24T03:51:23;18.40;71.10
9544;DHT22;30418;51.45933468;7.33152330;2022-10-24T03:53:53;18.30;71.00
9544;DHT22;30418;51.45933468;7.33152330;2022-10-24T03:56:21;18.40;70.90
9544;DHT22;30418;51.45933468;7.33152330;2022-10-24T03:58:50;18.30;70.90
9544;DHT22;30418;51.45933468;7.33152330;2022-10-24T04:01:18;18.40;71.00
9544;DHT22;30418;51.45933468;7.33152330;2022-10-24T04:03:48;18.30;70.80
9544;DHT22;30418;51.45933468;7.33152330;2022-10-24T04:06:17;18.40;70.90
9544;DHT22;30418;51.45933468;7.33152330;2022-10-24T04:08:45;18.30;70.80
9544;DHT22;30418;51.45933468;7.33152330;2022-10-24T04:11:15;18.40;70.90
9544;DHT22;30418;51.45933468;7.33152330;2022-10-24T04:13:43;18.40;70.90
9544;DHT22;30418;51.45933468;7.33152330;2022-10-24T04:16:12;18.40;70.90
9544;DHT22;30418;51.45933468;7.33152330;2022-10-24T04:18:40;18.40;70.90
9544;DHT22;30418;51.45933468;7.33152330;2022-10-24T04:21:09;18.40;70.90
9544;DHT22;30418;51.45933468;7.33152330;2022-10-24T04:23:38;18.40;70.90
9544;DHT22;30418;51.45933468;7.33152330;2022-10-24T04:26:08;18.40;70.90
9544;DHT22;30418;51.45933468;7.33152330;2022-10-24T04:28:39;18.40;70.80
9544;DHT22;30418;51.45933468;7.33152330;2022-10-24T04:31:07;18.30;70.60
9544;DHT22;30418;51.45933468;7.33152330;2022-10-24T04:33:36;18.30;70.60
9544;DHT22;30418;51.45933468;7.33152330;2022-10-24T04:36:05;18.30;70.60
9544;DHT22;30418;51.45933468;7.33152330;2022-10-24T04:38:34;18.30;71.40
9544;DHT22;30418;51.45933468;7.33152330;2022-10-24T04:41:02;18.30;70.60
9544;DHT22;30418;51.45933468;7.33152330;2022-10-24T04:43:35;18.30;70.50
9544;DHT22;30418;51.45933468;7.33152330;2022-10-24T04:46:05;18.30;70.50
9544;DHT22;30418;51.45933468;7.33152330;2022-10-24T04:48:34;18.30;70.40
9544;DHT22;30418;51.45933468;7.33152330;2022-10-24T04:51:03;18.30;70.50
9544;DHT22;30418;51.45933468;7.33152330;2022-10-24T04:53:32;18.30;70.40
9544;DHT22;30418;51.45933468;7.33152330;2022-10-24T04:56:01;18.30;70.30
9544;DHT22;30418;51.45933468;7.33152330;2022-10-24T04:58:30;18.30;70.40
9544;DHT22;30418;51.45933468;7.33152330;2022-10-24T05:00:59;18.30;70.30
9544;DHT22;30418;51.45933468;7.33152330;2022-10-24T05:03:29;18.30;70.30
9544;DHT22;30418;51.45933468;7.33152330;2022-10-24T05:05:57;18.30;70.20
9544;DHT22;30418;51.45933468;7.33152330;2022-10-24T05:08:26;18.30;70.20
9544;DHT22;30418;51.45933468;7.33152330;2022-10-24T05:10:54;18.30;70.10
9544;DHT22;30418;51.45933468;7.33152330;2022-10-24T05:13:23;18.30;70.10
9544;DHT22;30418;51.45933468;7.33152330;2022-10-24T05:15:52;18.30;70.00
9544;DHT22;30418;51.45933468;7.33152330;2022-10-24T05:18:20;18.30;70.00
9544;DHT22;30418;51.45933468;7.33152330;2022-10-24T05:20:54;18.30;69.90
9544;DHT22;30418;51.45933468;7.33152330;2022-10-24T05:23:23;18.30;69.90
9544;DHT22;30418;51.45933468;7.33152330;2022-10-24T05:25:52;18.30;69.80
9544;DHT22;30418;51.45933468;7.33152330;2022-10-24T05:28:20;18.30;69.80
9544;DHT22;30418;51.45933468;7.33152330;2022-10-24T05:30:49;18.30;69.70
9544;DHT22;30418;51.45933468;7.33152330;2022-10-24T05:33:17;18.30;70.50
9544;DHT22;30418;51.45933468;7.33152330;2022-10-24T05:35:46;18.30;69.60
9544;DHT22;30418;51.45933468;7.33152330;2022-10-24T05:38:16;18.20;69.50
9544;DHT22;30418;51.45933468;7.33152330;2022-10-24T05:40:45;18.20;69.40
9544;DHT22;30418;51.45933468;7.33152330;2022-10-24T05:43:17;18.30;69.40
9544;DHT22;30418;51.45933468;7.33152330;2022-10-24T05:45:47;18.30;69.40
9544;DHT22;30418;51.45933468;7.33152330;2022-10-24T05:48:16;18.20;69.30
9544;DHT22;30418;51.45933468;7.33152330;2022-10-24T05:50:45;18.20;69.40
9544;DHT22;30418;51.45933468;7.33152330;2022-10-24T05:53:13;18.20;69.30
9544;DHT22;30418;51.45933468;7.33152330;2022-10-24T05:55:43;18.20;69.30
9544;DHT22;30418;51.45933468;7.33152330;2022-10-24T05:58:11;18.20;69.20
9544;DHT22;30418;51.45933468;7.33152330;2022-10-24T06:00:40;18.20;69.20
9544;DHT22;30418;51.45933468;7.33152330;2022-10-24T06:03:09;18.20;69.20
9544;DHT22;30418;51.45933468;7.33152330;2022-10-24T06:05:38;18.20;69.00
9544;DHT22;30418;51.45933468;7.33152330;2022-10-24T06:08:07;18.20;69.00
9544;DHT22;30418;51.45933468;7.33152330;2022-10-24T06:10:36;18.20;69.00
9544;DHT22;30418;51.45933468;7.33152330;2022-10-24T06:13:06;18.20;69.00
9544;DHT22;30418;51.45933468;7.33152330;2022-10-24T06:15:35;18.20;68.80
9544;DHT22;30418;51.45933468;7.33152330;2022-10-24T06:18:03;18.20;68.70
9544;DHT22;30418;51.45933468;7.33152330;2022-10-24T06:20:32;18.20;68.70
9544;DHT22;30418;51.45933468;7.33152330;2022-10-24T06:23:00;18.20;68.60
9544;DHT22;30418;51.45933468;7.33152330;2022-10-24T06:25:29;18.20;68.50
9544;DHT22;30418;51.45933468;7.33152330;2022-10-24T06:27:57;18.20;68.40
9544;DHT22;30418;51.45933468;7.33152330;2022-10-24T06:30:27;18.20;68.40
9544;DHT22;30418;51.45933468;7.33152330;2022-10-24T06:32:55;18.20;68.20
9544;DHT22;30418;51.45933468;7.33152330;2022-10-24T06:35:24;18.20;68.20
9544;DHT22;30418;51.45933468;7.33152330;2022-10-24T06:37:52;18.20;68.30
9544;DHT22;30418;51.45933468;7.33152330;2022-10-24T06:40:21;18.30;68.30
9544;DHT22;30418;51.45933468;7.33152330;2022-10-24T06:42:50;18.30;68.30
9544;DHT22;30418;51.45933468;7.33152330;2022-10-24T06:45:18;18.30;68.30
9544;DHT22;30418;51.45933468;7.33152330;2022-10-24T06:47:49;18.30;68.20
9544;DHT22;30418;51.45933468;7.33152330;2022-10-24T06:50:20;18.30;68.10
9544;DHT22;30418;51.45933468;7.33152330;2022-10-24T06:52:48;18.30;68.10
9544;DHT22;30418;51.45933468;7.33152330;2022-10-24T06:55:17;18.30;68.10
9544;DHT22;30418;51.45933468;7.33152330;2022-10-24T06:57:46;18.30;68.10
9544;DHT22;30418;51.45933468;7.33152330;2022-10-24T07:00:15;18.30;68.10
9544;DHT22;30418;51.45933468;7.33152330;2022-10-24T07:02:44;18.30;68.10
9544;DHT22;30418;51.45933468;7.33152330;2022-10-24T07:05:14;18.30;68.00
9544;DHT22;30418;51.45933468;7.33152330;2022-10-24T07:07:43;18.30;67.90
9544;DHT22;30418;51.45933468;7.33152330;2022-10-24T07:10:13;18.40;68.10
9544;DHT22;30418;51.45933468;7.33152330;2022-10-24T07:12:42;18.40;68.10
9544;DHT22;30418;51.45933468;7.33152330;2022-10-24T07:15:11;18.40;68.10
9544;DHT22;30418;51.45933468;7.33152330;2022-10-24T07:17:40;18.40;68.10
9544;DHT22;30418;51.45933468;7.33152330;2022-10-24T07:20:10;18.40;68.10
9544;DHT22;30418;51.45933468;7.33152330;2022-10-24T07:22:40;18.40;68.10
9544;DHT22;30418;51.45933468;7.33152330;2022-10-24T07:25:11;18.40;68.10
9544;DHT22;30418;51.45933468;7.33152330;2022-10-24T07:27:40;18.40;68.20
9544;DHT22;30418;51.45933468;7.33152330;2022-10-24T07:30:15;18.40;68.10
9544;DHT22;30418;51.45933468;7.33152330;2022-10-24T07:32:44;18.40;67.80
9544;DHT22;30418;51.45933468;7.33152330;2022-10-24T07:35:13;18.40;68.10
9544;DHT22;30418;51.45933468;7.33152330;2022-10-24T07:37:43;18.40;68.10
9544;DHT22;30418;51.45933468;7.33152330;2022-10-24T07:40:12;18.40;67.90
9544;DHT22;30418;51.45933468;7.33152330;2022-10-24T07:42:41;18.50;68.10
9544;DHT22;30418;51.45933468;7.33152330;2022-10-24T07:45:12;18.50;68.10
9544;DHT22;30418;51.45933468;7.33152330;2022-10-24T07:47:41;18.50;67.90
9544;DHT22;30418;51.45933468;7.33152330;2022-10-24T07:50:10;18.50;68.10
9544;DHT22;30418;51.45933468;7.33152330;2022-10-24T07:52:38;18.60;68.20
9544;DHT22;30418;51.45933468;7.33152330;2022-10-24T07:55:08;18.60;68.30
9544;DHT22;30418;51.45933468;7.33152330;2022-10-24T07:57:37;18.60;68.10
9544;DHT22;30418;51.45933468;7.33152330;2022-10-24T08:00:07;18.70;68.20
9544;DHT22;30418;51.45933468;7.33152330;2022-10-24T08:02:40;18.70;68.20
9544;DHT22;30418;51.45933468;7.33152330;2022-10-24T08:05:10;18.80;68.40
9544;DHT22;30418;51.45933468;7.33152330;2022-10-24T08:07:38;18.80;68.30
9544;DHT22;30418;51.45933468;7.33152330;2022-10-24T08:10:23;18.80;68.20
9544;DHT22;30418;51.45933468;7.33152330;2022-10-24T08:12:51;18.80;68.20
9544;DHT22;30418;51.45933468;7.33152330;2022-10-24T08:15:20;18.90;67.90
9544;DHT22;30418;51.45933468;7.33152330;2022-10-24T08:17:51;18.90;67.80
9544;DHT22;30418;51.45933468;7.33152330;2022-10-24T08:20:20;18.90;67.70
9544;DHT22;30418;51.45933468;7.33152330;2022-10-24T08:22:50;18.90;67.50
9544;DHT22;30418;51.45933468;7.33152330;2022-10-24T08:25:18;19.00;67.60
9544;DHT22;30418;51.45933468;7.33152330;2022-10-24T08:27:51;19.00;67.50
9544;DHT22;30418;51.45933468;7.33152330;2022-10-24T08:30:19;19.00;67.40
9544;DHT22;30418;51.45933468;7.33152330;2022-10-24T08:32:47;19.00;67.40
9544;DHT22;30418;51.45933468;7.33152330;2022-10-24T08:35:17;19.00;67.40
9544;DHT22;30418;51.45933468;7.33152330;2022-10-24T08:37:47;19.00;67.30
9544;DHT22;30418;51.45933468;7.33152330;2022-10-24T08:40:18;19.10;67.20
9544;DHT22;30418;51.45933468;7.33152330;2022-10-24T08:42:50;19.10;67.10
9544;DHT22;30418;51.45933468;7.33152330;2022-10-24T08:45:25;19.10;67.00
9544;DHT22;30418;51.45933468;7.33152330;2022-10-24T08:48:02;19.20;66.80
9544;DHT22;30418;51.45933468;7.33152330;2022-10-24T08:50:33;19.20;66.40
9544;DHT22;30418;51.45933468;7.33152330;2022-10-24T08:53:05;19.20;66.70
9544;DHT22;30418;51.45933468;7.33152330;2022-10-24T08:55:38;19.20;66.50
9544;DHT22;30418;51.45933468;7.33152330;2022-10-24T08:58:20;19.20;66.70
9544;DHT22;30418;51.45933468;7.33152330;2022-10-24T09:00:52;19.20;66.40
9544;DHT22;30418;51.45933468;7.33152330;2022-10-24T09:03:27;19.20;66.30
9544;DHT22;30418;51.45933468;7.33152330;2022-10-24T09:06:20;19.20;66.20
9544;DHT22;30418;51.45933468;7.33152330;2022-10-24T09:08:52;19.20;66.20
9544;DHT22;30418;51.45933468;7.33152330;2022-10-24T09:11:25;19.20;66.10
9544;DHT22;30418;51.45933468;7.33152330;2022-10-24T09:14:00;19.20;66.00
9544;DHT22;30418;51.45933468;7.33152330;2022-10-24T09:16:31;19.20;66.00
9544;DHT22;30418;51.45933468;7.33152330;2022-10-24T09:19:02;19.20;66.10
9544;DHT22;30418;51.45933468;7.33152330;2022-10-24T09:21:35;19.20;66.10
9544;DHT22;30418;51.45933468;7.33152330;2022-10-24T09:24:10;19.20;66.10
9544;DHT22;30418;51.45933468;7.33152330;2022-10-24T09:26:48;19.20;66.10
9544;DHT22;30418;51.45933468;7.33152330;2022-10-24T09:29:17;19.20;66.00
9544;DHT22;30418;51.45933468;7.33152330;2022-10-24T09:31:46;19.20;66.00
9544;DHT22;30418;51.45933468;7.33152330;2022-10-24T09:34:16;19.20;66.00
9544;DHT22;30418;51.45933468;7.33152330;2022-10-24T09:36:47;19.20;65.90
9544;DHT22;30418;51.45933468;7.33152330;2022-10-24T09:39:28;19.20;66.80
9544;DHT22;30418;51.45933468;7.33152330;2022-10-24T09:42:01;19.20;65.70
9544;DHT22;30418;51.45933468;7.33152330;2022-10-24T09:44:44;19.20;66.00
9544;DHT22;30418;51.45933468;7.33152330;2022-10-24T09:47:24;19.20;65.50
9544;DHT22;30418;51.45933468;7.33152330;2022-10-24T09:49:54;19.20;65.60
9544;DHT22;30418;51.45933468;7.33152330;2022-10-24T09:52:25;19.20;66.10
9544;DHT22;30418;51.45933468;7.33152330;2022-10-24T09:55:16;19.20;65.80
9544;DHT22;30418;51.45933468;7.33152330;2022-10-24T09:57:47;19.20;65.50
9544;DHT22;30418;51.45933468;7.33152330;2022-10-24T10:00:24;19.20;65.60
9544;DHT22;30418;51.45933468;7.33152330;2022-10-24T10:03:02;19.20;65.40
9544;DHT22;30418;51.45933468;7.33152330;2022-10-24T10:05:44;19.20;65.40
9544;DHT22;30418;51.45933468;7.33152330;2022-10-24T10:08:18;19.20;65.40
9544;DHT22;30418;51.45933468;7.33152330;2022-10-24T10:11:00;19.20;65.40
9544;DHT22;30418;51.45933468;7.33152330;2022-10-24T10:13:33;19.20;65.40
9544;DHT22;30418;51.45933468;7.33152330;2022-10-24T10:16:22;19.20;66.30
9544;DHT22;30418;51.45933468;7.33152330;2022-10-24T10:19:00;19.20;65.40
9544;DHT22;30418;51.45933468;7.33152330;2022-10-24T10:21:52;19.20;65.40
9544;DHT22;30418;51.45933468;7.33152330;2022-10-24T10:24:24;19.20;65.40
9544;DHT22;30418;51.45933468;7.33152330;2022-10-24T10:26:54;19.20;65.80
9544;DHT22;30418;51.45933468;7.33152330;2022-10-24T10:29:23;19.30;66.00
9544;DHT22;30418;51.45933468;7.33152330;2022-10-24T10:31:59;19.30;66.10
9544;DHT22;30418;51.45933468;7.33152330;2022-10-24T10:34:37;19.30;66.00
9544;DHT22;30418;51.45933468;7.33152330;2022-10-24T10:37:20;19.40;65.90
9544;DHT22;30418;51.45933468;7.33152330;2022-10-24T10:43:14;19.40;65.60
9544;DHT22;30418;51.45933468;7.33152330;2022-10-24T10:46:00;19.40;65.40
9544;DHT22;30418;51.45933468;7.33152330;2022-10-24T10:48:47;19.40;65.30
9544;DHT22;30418;51.45933468;7.33152330;2022-10-24T10:51:28;19.50;65.20
9544;DHT22;30418;51.45933468;7.33152330;2022-10-24T10:54:17;19.50;65.20
9544;DHT22;30418;51.45933468;7.33152330;2022-10-24T10:56:59;19.50;65.20
9544;DHT22;30418;51.45933468;7.33152330;2022-10-24T10:59:39;19.50;65.00
9544;DHT22;30418;51.45933468;7.33152330;2022-10-24T11:02:41;19.50;64.70
9544;DHT22;30418;51.45933468;7.33152330;2022-10-24T11:05:32;19.50;64.60
9544;DHT22;30418;51.45933468;7.33152330;2022-10-24T11:08:14;19.50;64.70
9544;DHT22;30418;51.45933468;7.33152330;2022-10-24T11:10:51;19.50;64.60
9544;DHT22;30418;51.45933468;7.33152330;2022-10-24T11:13:25;19.50;64.70
9544;DHT22;30418;51.45933468;7.33152330;2022-10-24T11:16:02;19.50;64.50
9544;DHT22;30418;51.45933468;7.33152330;2022-10-24T11:18:34;19.50;64.60
9544;DHT22;30418;51.45933468;7.33152330;2022-10-24T11:21:08;19.50;64.60
9544;DHT22;30418;51.45933468;7.33152330;2022-10-24T11:23:41;19.50;64.50
9544;DHT22;30418;51.45933468;7.33152330;2022-10-24T11:26:15;19.50;64.60
9544;DHT22;30418;51.45933468;7.33152330;2022-10-24T11:29:18;19.50;64.60
9544;DHT22;30418;51.45933468;7.33152330;2022-10-24T11:31:49;19.50;64.40
9544;DHT22;30418;51.45933468;7.33152330;2022-10-24T11:34:26;19.50;64.60
9544;DHT22;30418;51.45933468;7.33152330;2022-10-24T11:37:03;19.50;64.50
9544;DHT22;30418;51.45933468;7.33152330;2022-10-24T11:39:39;19.50;64.50
9544;DHT22;30418;51.45933468;7.33152330;2022-10-24T11:42:16;19.50;64.30
9544;DHT22;30418;51.45933468;7.33152330;2022-10-24T11:44:52;19.50;64.30
9544;DHT22;30418;51.45933468;7.33152330;2022-10-24T11:47:56;19.50;64.40
9544;DHT22;30418;51.45933468;7.33152330;2022-10-24T11:50:35;19.50;64.00
9544;DHT22;30418;51.45933468;7.33152330;2022-10-24T11:53:15;19.50;64.30
9544;DHT22;30418;51.45933468;7.33152330;2022-10-24T11:55:53;19.50;64.10
9544;DHT22;30418;51.45933468;7.33152330;2022-10-24T11:58:26;19.60;64.20
9544;DHT22;30418;51.45933468;7.33152330;2022-10-24T12:01:11;19.60;64.10
9544;DHT22;30418;51.45933468;7.33152330;2022-10-24T12:04:04;19.60;64.00
9544;DHT22;30418;51.45933468;7.33152330;2022-10-24T12:07:01;19.50;63.70
9544;DHT22;30418;51.45933468;7.33152330;2022-10-24T12:10:11;19.50;63.90
9544;DHT22;30418;51.45933468;7.33152330;2022-10-24T12:13:02;19.60;64.00
9544;DHT22;30418;51.45933468;7.33152330;2022-10-24T12:15:45;19.60;64.10
9544;DHT22;30418;51.45933468;7.33152330;2022-10-24T12:18:27;19.50;64.10
9544;DHT22;30418;51.45933468;7.33152330;2022-10-24T12:21:02;19.50;64.10
9544;DHT22;30418;51.45933468;7.33152330;2022-10-24T12:23:32;19.50;64.40
9544;DHT22;30418;51.45933468;7.33152330;2022-10-24T12:26:02;19.50;64.50
9544;DHT22;30418;51.45933468;7.33152330;2022-10-24T12:28:32;19.50;64.50
9544;DHT22;30418;51.45933468;7.33152330;2022-10-24T12:31:10;19.50;64.50
9544;DHT22;30418;51.45933468;7.33152330;2022-10-24T12:37:34;19.50;64.70
9544;DHT22;30418;51.45933468;7.33152330;2022-10-24T12:43:30;19.40;65.10
9544;DHT22;30418;51.45933468;7.33152330;2022-10-24T12:49:26;19.30;65.50
9544;DHT22;30418;51.45933468;7.33152330;2022-10-24T12:51:58;19.30;65.50
9544;DHT22;30418;51.45933468;7.33152330;2022-10-24T12:55:28;19.30;65.60
9544;DHT22;30418;51.45933468;7.33152330;2022-10-24T12:58:20;19.30;65.70
9544;DHT22;30418;51.45933468;7.33152330;2022-10-24T13:00:54;19.30;65.80
9544;DHT22;30418;51.45933468;7.33152330;2022-10-24T13:03:38;19.30;66.00
9544;DHT22;30418;51.45933468;7.33152330;2022-10-24T13:06:21;19.20;66.10
9544;DHT22;30418;51.45933468;7.33152330;2022-10-24T13:09:13;19.20;66.40
9544;DHT22;30418;51.45933468;7.33152330;2022-10-24T13:11:59;19.30;66.60
9544;DHT22;30418;51.45933468;7.33152330;2022-10-24T13:14:47;19.30;66.70
9544;DHT22;30418;51.45933468;7.33152330;2022-10-24T13:17:31;19.30;66.60
9544;DHT22;30418;51.45933468;7.33152330;2022-10-24T13:20:12;19.30;66.50
9544;DHT22;30418;51.45933468;7.33152330;2022-10-24T13:22:43;19.40;66.30
9544;DHT22;30418;51.45933468;7.33152330;2022-10-24T13:25:20;19.40;66.30
9544;DHT22;30418;51.45933468;7.33152330;2022-10-24T13:28:36;19.40;66.10
9544;DHT22;30418;51.45933468;7.33152330;2022-10-24T13:31:44;19.40;65.80
9544;DHT22;30418;51.45933468;7.33152330;2022-10-24T13:34:40;19.40;66.00
9544;DHT22;30418;51.45933468;7.33152330;2022-10-24T13:37:19;19.40;66.10
9544;DHT22;30418;51.45933468;7.33152330;2022-10-24T13:39:53;19.50;66.20
9544;DHT22;30418;51.45933468;7.33152330;2022-10-24T13:42:28;19.50;66.10
9544;DHT22;30418;51.45933468;7.33152330;2022-10-24T13:45:14;19.50;65.90
9544;DHT22;30418;51.45933468;7.33152330;2022-10-24T13:47:52;19.60;65.90
9544;DHT22;30418;51.45933468;7.33152330;2022-10-24T13:50:27;19.60;65.90
9544;DHT22;30418;51.45933468;7.33152330;2022-10-24T13:53:02;19.60;65.90
9544;DHT22;30418;51.45933468;7.33152330;2022-10-24T13:55:43;19.60;65.90
9544;DHT22;30418;51.45933468;7.33152330;2022-10-24T13:58:18;19.60;65.80
9544;DHT22;30418;51.45933468;7.33152330;2022-10-24T14:00:54;19.60;65.50
9544;DHT22;30418;51.45933468;7.33152330;2022-10-24T14:03:26;19.70;65.50
9544;DHT22;30418;51.45933468;7.33152330;2022-10-24T14:06:01;19.70;65.60
9544;DHT22;30418;51.45933468;7.33152330;2022-10-24T14:08:34;19.70;65.60
9544;DHT22;30418;51.45933468;7.33152330;2022-10-24T14:11:07;19.70;65.60
9544;DHT22;30418;51.45933468;7.33152330;2022-10-24T14:13:42;19.80;65.60
9544;DHT22;30418;51.45933468;7.33152330;2022-10-24T14:16:13;19.80;65.30
9544;DHT22;30418;51.45933468;7.33152330;2022-10-24T14:18:43;19.80;66.20
9544;DHT22;30418;51.45933468;7.33152330;2022-10-24T14:21:17;19.80;65.30
9544;DHT22;30418;51.45933468;7.33152330;2022-10-24T14:23:54;19.90;65.20
9544;DHT22;30418;51.45933468;7.33152330;2022-10-24T14:26:24;19.90;64.70
9544;DHT22;30418;51.45933468;7.33152330;2022-10-24T14:28:57;20.00;64.80
9544;DHT22;30418;51.45933468;7.33152330;2022-10-24T14:31:28;20.00;64.70